createdAt,value
2016-11-30T00:00:14.075Z,18.19
2016-11-30T00:01:24.537Z,18.19
2016-11-30T00:02:35.262Z,18.23
2016-11-30T00:03:45.787Z,18.28
2016-11-30T00:04:56.320Z,18.21
2016-11-30T00:06:07.338Z,18.21
2016-11-30T00:07:32.391Z,18.23
2016-11-30T00:08:42.955Z,18.29
2016-11-30T00:09:53.478Z,18.29
2016-11-30T00:11:04.010Z,18.31
2016-11-30T00:12:14.540Z,18.26
2016-11-30T00:13:25.063Z,18.25
2016-11-30T00:14:35.588Z,18.19
2016-11-30T00:15:46.143Z,18.2
2016-11-30T00:16:56.665Z,18.34
2016-11-30T00:18:07.191Z,18.19
2016-11-30T00:19:32.242Z,18.28
2016-11-30T00:20:42.775Z,18.35
2016-11-30T00:21:53.298Z,18.35
2016-11-30T00:23:03.859Z,18.28
2016-11-30T00:24:14.381Z,18.31
2016-11-30T00:25:24.904Z,18.2
2016-11-30T00:26:49.952Z,18.11
2016-11-30T00:28:00.477Z,18.17
2016-11-30T00:29:11.004Z,18.23
2016-11-30T00:30:21.655Z,18.16
2016-11-30T00:31:32.181Z,18.1
2016-11-30T00:32:57.228Z,18.2
2016-11-30T00:34:07.705Z,18.23
2016-11-30T00:35:18.207Z,18.2
2016-11-30T00:36:28.614Z,18.28
2016-11-30T00:37:39.014Z,18.21
2016-11-30T00:38:49.423Z,18.2
2016-11-30T00:39:59.831Z,18.21
2016-11-30T00:41:10.433Z,18.23
2016-11-30T00:42:20.837Z,18.25
2016-11-30T00:43:31.247Z,18.26
2016-11-30T00:44:41.652Z,18.35
2016-11-30T00:45:52.061Z,18.35
2016-11-30T00:47:02.665Z,18.2
2016-11-30T00:48:13.072Z,18.1
2016-11-30T00:49:23.474Z,18.04
2016-11-30T00:50:34.371Z,18.01
2016-11-30T00:51:44.775Z,17.98
2016-11-30T00:52:55.183Z,17.94
2016-11-30T00:54:05.587Z,17.94
2016-11-30T00:55:16.003Z,18.02
2016-11-30T00:56:26.406Z,17.98
2016-11-30T00:57:36.811Z,17.94
2016-11-30T00:59:01.965Z,17.96
2016-11-30T01:00:12.372Z,17.91
2016-11-30T01:01:22.772Z,18.01
2016-11-30T01:02:33.174Z,17.94
2016-11-30T01:03:43.586Z,17.92
2016-11-30T01:04:53.992Z,17.94
2016-11-30T01:06:04.404Z,17.91
2016-11-30T01:07:14.816Z,17.96
2016-11-30T01:08:25.288Z,18.05
2016-11-30T01:09:35.915Z,18.07
2016-11-30T01:10:46.437Z,18.07
2016-11-30T01:11:56.960Z,17.98
2016-11-30T01:13:07.484Z,17.96
2016-11-30T01:14:18.008Z,17.99
2016-11-30T01:15:28.736Z,17.94
2016-11-30T01:16:39.297Z,17.94
2016-11-30T01:17:49.820Z,18.04
2016-11-30T01:19:00.350Z,17.94
2016-11-30T01:20:10.873Z,17.99
2016-11-30T01:21:21.497Z,17.98
2016-11-30T01:22:32.018Z,17.94
2016-11-30T01:23:42.545Z,17.91
2016-11-30T01:24:53.071Z,17.94
2016-11-30T01:26:03.601Z,17.98
2016-11-30T01:27:14.127Z,17.98
2016-11-30T01:28:24.653Z,17.89
2016-11-30T01:29:35.174Z,17.98
2016-11-30T01:30:45.696Z,17.98
2016-11-30T01:32:10.745Z,18.02
2016-11-30T01:33:21.279Z,17.99
2016-11-30T01:34:31.804Z,18.04
2016-11-30T01:35:42.328Z,18.02
2016-11-30T01:36:52.852Z,18.01
2016-11-30T01:38:03.477Z,17.95
2016-11-30T01:39:28.550Z,17.98
2016-11-30T01:40:39.076Z,17.98
2016-11-30T01:41:49.595Z,17.94
2016-11-30T01:43:14.646Z,17.91
2016-11-30T01:44:25.170Z,17.86
2016-11-30T01:45:35.704Z,17.92
2016-11-30T01:46:46.226Z,18.01
2016-11-30T01:47:56.754Z,17.92
2016-11-30T01:49:07.479Z,17.99
2016-11-30T01:50:18.004Z,18.02
2016-11-30T01:51:28.528Z,17.99
2016-11-30T01:52:39.054Z,18.01
2016-11-30T01:53:49.575Z,18.02
2016-11-30T01:55:00.300Z,17.87
2016-11-30T01:56:10.825Z,18.01
2016-11-30T01:57:21.350Z,18.01
2016-11-30T01:58:31.898Z,18.04
2016-11-30T01:59:42.421Z,17.96
2016-11-30T02:00:52.943Z,17.98
2016-11-30T02:02:03.466Z,18.01
2016-11-30T02:03:14.493Z,18.02
2016-11-30T02:04:25.017Z,17.91
2016-11-30T02:05:35.541Z,17.89
2016-11-30T02:06:46.291Z,17.87
2016-11-30T02:07:56.810Z,17.81
2016-11-30T02:09:07.343Z,17.92
2016-11-30T02:10:17.870Z,17.94
2016-11-30T02:11:43.125Z,17.79
2016-11-30T02:13:08.175Z,17.84
2016-11-30T02:14:18.641Z,17.86
2016-11-30T02:15:29.050Z,17.87
2016-11-30T02:16:39.455Z,17.92
2016-11-30T02:17:49.865Z,18.01
2016-11-30T02:19:00.271Z,17.89
2016-11-30T02:20:10.675Z,17.99
2016-11-30T02:21:21.565Z,17.96
2016-11-30T02:22:31.974Z,18.04
2016-11-30T02:23:42.383Z,17.99
2016-11-30T02:24:52.790Z,18.02
2016-11-30T02:26:03.197Z,18.09
2016-11-30T02:27:13.614Z,18.09
2016-11-30T02:28:38.571Z,17.98
2016-11-30T02:29:48.974Z,17.98
2016-11-30T02:30:59.382Z,18.04
2016-11-30T02:32:09.795Z,17.87
2016-11-30T02:33:20.204Z,17.84
2016-11-30T02:34:30.608Z,17.8
2016-11-30T02:35:41.014Z,17.81
2016-11-30T02:36:51.420Z,17.76
2016-11-30T02:38:02.308Z,17.87
2016-11-30T02:39:12.713Z,17.86
2016-11-30T02:40:23.346Z,17.92
2016-11-30T02:41:48.309Z,17.86
2016-11-30T02:42:58.718Z,17.91
2016-11-30T02:44:09.134Z,17.71
2016-11-30T02:45:19.538Z,17.54
2016-11-30T02:46:29.944Z,17.45
2016-11-30T02:47:40.348Z,17.49
2016-11-30T02:48:50.752Z,17.47
2016-11-30T02:50:01.160Z,17.43
2016-11-30T02:51:11.668Z,17.36
2016-11-30T02:52:22.071Z,17.39
2016-11-30T02:53:32.478Z,17.36
2016-11-30T02:54:42.887Z,17.35
2016-11-30T02:55:53.293Z,17.36
2016-11-30T02:57:03.697Z,17.28
2016-11-30T02:58:14.097Z,17.32
2016-11-30T02:59:24.528Z,17.35
2016-11-30T03:00:34.930Z,17.35
2016-11-30T03:01:45.336Z,17.4
2016-11-30T03:02:55.747Z,17.42
2016-11-30T03:04:06.190Z,17.42
2016-11-30T03:05:16.597Z,17.4
2016-11-30T03:06:26.999Z,17.33
2016-11-30T03:07:37.406Z,17.36
2016-11-30T03:08:48.015Z,17.32
2016-11-30T03:09:58.419Z,17.25
2016-11-30T03:11:08.830Z,17.3
2016-11-30T03:12:19.232Z,17.38
2016-11-30T03:13:29.640Z,17.25
2016-11-30T03:14:40.149Z,17.18
2016-11-30T03:15:50.548Z,17.17
2016-11-30T03:17:00.956Z,17.22
2016-11-30T03:18:11.359Z,17.21
2016-11-30T03:19:21.767Z,17.17
2016-11-30T03:20:32.272Z,17.14
2016-11-30T03:21:42.679Z,17.15
2016-11-30T03:22:53.085Z,17.2
2016-11-30T03:24:03.493Z,17.2
2016-11-30T03:25:13.901Z,17.21
2016-11-30T03:27:49.262Z,17.17
2016-11-30T03:28:59.666Z,17.2
2016-11-30T03:30:10.104Z,17.2
2016-11-30T03:31:20.607Z,17.14
2016-11-30T03:32:31.010Z,17.17
2016-11-30T03:33:41.420Z,17.14
2016-11-30T03:34:51.818Z,17.12
2016-11-30T03:36:02.227Z,16.99
2016-11-30T03:37:12.631Z,17.14
2016-11-30T03:38:23.059Z,17.05
2016-11-30T03:39:33.462Z,17.02
2016-11-30T03:40:43.868Z,17.02
2016-11-30T03:41:54.271Z,17.06
2016-11-30T03:43:04.877Z,17.03
2016-11-30T03:44:15.280Z,17
2016-11-30T03:45:25.687Z,17.05
2016-11-30T03:46:36.091Z,16.98
2016-11-30T03:47:46.495Z,17
2016-11-30T03:48:56.905Z,17.1
2016-11-30T03:50:07.388Z,17.02
2016-11-30T03:51:17.827Z,17.06
2016-11-30T03:52:28.228Z,16.98
2016-11-30T03:53:38.634Z,17.06
2016-11-30T03:55:03.795Z,17.2
2016-11-30T03:56:14.198Z,17.24
2016-11-30T03:58:49.595Z,17.18
2016-11-30T04:00:00.585Z,17.18
2016-11-30T04:01:10.986Z,17.15
2016-11-30T04:03:46.342Z,17.14
2016-11-30T04:04:56.750Z,17.12
2016-11-30T04:06:21.705Z,17.1
2016-11-30T04:07:32.108Z,17.17
2016-11-30T04:08:42.510Z,17.17
2016-11-30T04:09:52.944Z,17.17
2016-11-30T04:11:03.348Z,17.2
2016-11-30T04:12:13.783Z,17.14
2016-11-30T04:13:24.189Z,17.1
2016-11-30T04:14:34.591Z,17.21
2016-11-30T04:15:45.494Z,17.07
2016-11-30T04:16:56.099Z,17.05
2016-11-30T04:18:06.505Z,17.1
2016-11-30T04:19:16.908Z,16.98
2016-11-30T04:20:27.313Z,17.02
2016-11-30T04:21:37.718Z,17.05
2016-11-30T04:23:02.673Z,17
2016-11-30T04:24:13.075Z,17.06
2016-11-30T04:25:23.483Z,17.02
2016-11-30T04:26:33.892Z,17.05
2016-11-30T04:27:44.296Z,17.02
2016-11-30T04:28:54.700Z,17.03
2016-11-30T04:30:05.102Z,16.95
2016-11-30T04:31:15.508Z,16.95
2016-11-30T04:32:25.912Z,17
2016-11-30T04:33:36.524Z,16.98
2016-11-30T04:34:46.927Z,16.84
2016-11-30T04:35:57.333Z,16.88
2016-11-30T04:37:07.741Z,16.84
2016-11-30T04:38:18.141Z,16.84
2016-11-30T04:39:28.744Z,16.85
2016-11-30T04:40:39.151Z,16.87
2016-11-30T04:41:49.554Z,16.92
2016-11-30T04:42:59.959Z,16.98
2016-11-30T04:44:10.360Z,16.96
2016-11-30T04:45:20.963Z,16.88
2016-11-30T04:46:31.366Z,16.84
2016-11-30T04:47:41.764Z,16.85
2016-11-30T04:48:52.174Z,16.84
2016-11-30T04:50:02.579Z,17
2016-11-30T04:51:12.983Z,16.99
2016-11-30T04:52:23.386Z,16.84
2016-11-30T04:53:33.787Z,16.88
2016-11-30T04:54:44.190Z,16.84
2016-11-30T04:55:54.598Z,16.84
2016-11-30T04:57:05.008Z,16.84
2016-11-30T04:58:15.414Z,16.87
2016-11-30T04:59:25.820Z,16.88
2016-11-30T05:00:36.218Z,16.9
2016-11-30T05:03:11.731Z,16.82
2016-11-30T05:04:22.251Z,16.84
2016-11-30T05:05:33.767Z,16.92
2016-11-30T05:06:44.293Z,16.98
2016-11-30T05:07:55.020Z,16.92
2016-11-30T05:09:06.057Z,16.9
2016-11-30T05:10:16.579Z,16.82
2016-11-30T05:11:27.101Z,16.88
2016-11-30T05:12:37.655Z,16.96
2016-11-30T05:13:48.379Z,16.96
2016-11-30T05:14:58.901Z,17.02
2016-11-30T05:16:09.426Z,17.03
2016-11-30T05:17:34.479Z,16.96
2016-11-30T05:18:45.208Z,17.06
2016-11-30T05:19:55.729Z,17.2
2016-11-30T05:21:06.252Z,17.18
2016-11-30T05:22:16.779Z,17.22
2016-11-30T05:23:27.301Z,17.18
2016-11-30T05:24:37.820Z,17.12
2016-11-30T05:25:48.340Z,17.24
2016-11-30T05:26:59.363Z,17.22
2016-11-30T05:28:09.886Z,17.2
2016-11-30T05:29:20.409Z,17.14
2016-11-30T05:30:30.928Z,17.15
2016-11-30T05:31:55.978Z,17.17
2016-11-30T05:33:06.508Z,17.17
2016-11-30T05:34:31.557Z,17.18
2016-11-30T05:35:42.570Z,17.07
2016-11-30T05:36:53.092Z,17.07
2016-11-30T05:38:03.617Z,17.21
2016-11-30T05:39:14.139Z,17.15
2016-11-30T05:40:24.662Z,17.15
2016-11-30T05:41:35.388Z,17.24
2016-11-30T05:42:45.909Z,17.18
2016-11-30T05:43:56.447Z,17.25
2016-11-30T05:45:06.973Z,17.17
2016-11-30T05:46:17.497Z,17.17
2016-11-30T05:47:28.819Z,17.15
2016-11-30T05:48:53.867Z,17.06
2016-11-30T05:50:04.392Z,17.15
2016-11-30T05:51:14.924Z,17.15
2016-11-30T05:52:25.647Z,17.17
2016-11-30T05:53:36.169Z,17.03
2016-11-30T05:54:46.692Z,16.98
2016-11-30T05:55:57.211Z,17.03
2016-11-30T05:57:07.748Z,17
2016-11-30T05:58:18.271Z,16.99
2016-11-30T05:59:28.797Z,17.02
2016-11-30T06:00:39.315Z,17.15
2016-11-30T06:01:49.847Z,17.15
2016-11-30T06:03:00.368Z,17.15
2016-11-30T06:04:11.096Z,16.96
2016-11-30T06:05:21.617Z,17.02
2016-11-30T06:06:32.138Z,17.03
2016-11-30T06:07:42.660Z,16.99
2016-11-30T06:08:53.208Z,16.98
2016-11-30T06:10:03.930Z,17.09
2016-11-30T06:11:14.455Z,17.07
2016-11-30T06:12:24.976Z,17.02
2016-11-30T06:13:35.499Z,17
2016-11-30T06:14:46.021Z,17.06
2016-11-30T06:15:56.548Z,17.1
2016-11-30T06:17:07.075Z,17
2016-11-30T06:18:17.598Z,17.05
2016-11-30T06:19:28.123Z,17.05
2016-11-30T06:20:38.646Z,16.95
2016-11-30T06:22:03.892Z,17.09
2016-11-30T06:23:14.417Z,17
2016-11-30T06:24:24.940Z,17
2016-11-30T06:25:35.462Z,16.88
2016-11-30T06:26:46.185Z,16.9
2016-11-30T06:27:56.706Z,16.9
2016-11-30T06:29:07.231Z,16.87
2016-11-30T06:30:17.752Z,16.84
2016-11-30T06:31:28.277Z,16.85
2016-11-30T06:32:39.002Z,16.87
2016-11-30T06:33:49.526Z,16.87
2016-11-30T06:35:00.054Z,16.96
2016-11-30T06:36:10.587Z,16.98
2016-11-30T06:37:21.108Z,17.05
2016-11-30T06:38:31.873Z,17
2016-11-30T06:39:42.397Z,17.03
2016-11-30T06:40:52.919Z,16.98
2016-11-30T06:42:03.442Z,17.07
2016-11-30T06:43:13.964Z,17.03
2016-11-30T06:44:24.689Z,17.14
2016-11-30T06:45:35.211Z,17.17
2016-11-30T06:46:45.733Z,17.14
2016-11-30T06:47:56.265Z,17.2
2016-11-30T06:49:06.811Z,17.15
2016-11-30T06:50:17.539Z,17.1
2016-11-30T06:51:28.070Z,17.15
2016-11-30T06:52:38.593Z,17.06
2016-11-30T06:53:49.116Z,17.09
2016-11-30T06:54:59.641Z,17
2016-11-30T06:56:10.169Z,16.95
2016-11-30T06:57:20.715Z,16.99
2016-11-30T06:58:31.240Z,16.98
2016-11-30T06:59:41.761Z,16.9
2016-11-30T07:00:52.288Z,16.88
2016-11-30T07:02:02.840Z,16.88
2016-11-30T07:03:27.890Z,16.85
2016-11-30T07:04:38.411Z,16.9
2016-11-30T07:06:03.459Z,16.82
2016-11-30T07:07:13.983Z,16.81
2016-11-30T07:10:04.108Z,16.78
2016-11-30T07:11:14.630Z,16.88
2016-11-30T07:12:25.352Z,16.81
2016-11-30T07:13:35.873Z,16.78
2016-11-30T07:14:46.395Z,16.8
2016-11-30T07:15:56.916Z,16.75
2016-11-30T07:17:07.437Z,16.7
2016-11-30T07:18:18.096Z,16.67
2016-11-30T07:19:28.500Z,16.62
2016-11-30T07:20:38.903Z,16.57
2016-11-30T07:21:49.310Z,16.6
2016-11-30T07:23:00.198Z,16.52
2016-11-30T07:24:10.799Z,16.52
2016-11-30T07:25:21.201Z,16.52
2016-11-30T07:26:31.634Z,16.5
2016-11-30T07:27:42.037Z,16.44
2016-11-30T07:28:52.439Z,16.47
2016-11-30T07:30:03.042Z,16.48
2016-11-30T07:31:13.444Z,16.5
2016-11-30T07:32:23.846Z,16.45
2016-11-30T07:33:34.253Z,16.4
2016-11-30T07:34:44.656Z,16.4
2016-11-30T07:35:55.057Z,16.4
2016-11-30T07:37:05.467Z,16.33
2016-11-30T07:38:15.868Z,16.17
2016-11-30T07:39:26.279Z,16.16
2016-11-30T07:40:36.680Z,16.16
2016-11-30T07:41:47.281Z,16.22
2016-11-30T07:42:57.686Z,16.22
2016-11-30T07:44:08.090Z,16.27
2016-11-30T07:45:18.493Z,16.32
2016-11-30T07:46:28.897Z,16.33
2016-11-30T07:47:39.503Z,16.34
2016-11-30T07:48:49.909Z,16.4
2016-11-30T07:50:00.309Z,16.37
2016-11-30T07:51:10.776Z,16.32
2016-11-30T07:52:21.296Z,16.33
2016-11-30T07:53:32.022Z,16.36
2016-11-30T07:54:42.544Z,16.37
2016-11-30T07:55:53.074Z,16.33
2016-11-30T07:57:03.596Z,16.36
2016-11-30T07:58:14.119Z,16.4
2016-11-30T07:59:24.643Z,16.37
2016-11-30T08:00:35.169Z,16.47
2016-11-30T08:01:45.696Z,16.42
2016-11-30T08:02:56.220Z,16.51
2016-11-30T08:04:06.748Z,16.54
2016-11-30T08:05:17.470Z,16.44
2016-11-30T08:06:27.989Z,16.44
2016-11-30T08:07:38.542Z,16.51
2016-11-30T08:08:49.067Z,16.45
2016-11-30T08:09:59.590Z,16.51
2016-11-30T08:11:10.137Z,16.54
2016-11-30T08:12:20.659Z,16.59
2016-11-30T08:13:31.178Z,16.54
2016-11-30T08:14:41.704Z,16.65
2016-11-30T08:15:52.225Z,16.6
2016-11-30T08:17:02.950Z,16.55
2016-11-30T08:18:28.004Z,16.59
2016-11-30T08:19:38.523Z,16.57
2016-11-30T08:20:49.046Z,16.66
2016-11-30T08:21:59.771Z,16.63
2016-11-30T08:23:10.311Z,16.62
2016-11-30T08:24:20.832Z,16.67
2016-11-30T08:25:31.381Z,16.65
2016-11-30T08:26:41.912Z,16.63
2016-11-30T08:27:52.634Z,16.6
2016-11-30T08:29:03.191Z,16.55
2016-11-30T08:30:28.239Z,16.47
2016-11-30T08:31:38.760Z,16.52
2016-11-30T08:32:49.482Z,16.57
2016-11-30T08:34:00.013Z,16.45
2016-11-30T08:35:10.535Z,16.5
2016-11-30T08:36:21.058Z,16.51
2016-11-30T08:37:31.583Z,16.52
2016-11-30T08:38:42.302Z,16.54
2016-11-30T08:39:52.829Z,16.54
2016-11-30T08:41:03.350Z,16.59
2016-11-30T08:42:13.876Z,16.69
2016-11-30T08:43:24.394Z,16.6
2016-11-30T08:44:34.939Z,16.69
2016-11-30T08:45:45.465Z,16.66
2016-11-30T08:46:55.993Z,16.67
2016-11-30T08:48:06.516Z,16.63
2016-11-30T08:49:31.763Z,16.69
2016-11-30T08:50:42.280Z,16.73
2016-11-30T08:51:52.804Z,16.78
2016-11-30T08:53:03.329Z,16.69
2016-11-30T08:54:14.351Z,16.84
2016-11-30T08:55:25.077Z,16.73
2016-11-30T08:56:35.559Z,16.7
2016-11-30T08:57:45.964Z,16.73
2016-11-30T08:58:56.368Z,16.75
2016-11-30T09:00:06.769Z,16.78
2016-11-30T09:01:17.860Z,16.8
2016-11-30T09:02:28.263Z,16.8
2016-11-30T09:03:38.665Z,16.7
2016-11-30T09:04:49.070Z,16.8
2016-11-30T09:05:59.473Z,16.81
2016-11-30T09:07:09.890Z,16.84
2016-11-30T09:08:20.292Z,16.78
2016-11-30T09:09:30.708Z,16.72
2016-11-30T09:11:10.208Z,16.8
2016-11-30T09:12:20.816Z,16.84
2016-11-30T09:13:31.226Z,16.9
2016-11-30T09:14:41.632Z,16.81
2016-11-30T09:15:52.036Z,16.85
2016-11-30T09:17:02.441Z,16.8
2016-11-30T09:18:13.042Z,16.82
2016-11-30T09:19:23.448Z,16.88
2016-11-30T09:20:33.856Z,16.73
2016-11-30T09:21:44.268Z,16.75
2016-11-30T09:22:54.677Z,16.69
2016-11-30T09:24:05.317Z,16.73
2016-11-30T09:25:15.756Z,16.77
2016-11-30T09:26:26.159Z,16.84
2016-11-30T09:27:36.582Z,16.87
2016-11-30T09:28:47.102Z,16.87
2016-11-30T09:29:57.626Z,16.9
2016-11-30T09:31:08.198Z,16.81
2016-11-30T09:32:33.254Z,16.75
2016-11-30T09:33:43.800Z,16.8
2016-11-30T09:34:54.323Z,16.85
2016-11-30T09:36:04.875Z,16.85
2016-11-30T09:37:15.395Z,16.82
2016-11-30T09:38:25.925Z,16.8
2016-11-30T09:39:36.448Z,16.85
2016-11-30T09:40:47.174Z,16.81
2016-11-30T09:42:12.219Z,16.88
2016-11-30T09:43:22.744Z,16.8
2016-11-30T09:44:47.825Z,16.8
2016-11-30T09:45:58.552Z,16.77
2016-11-30T09:47:09.075Z,16.87
2016-11-30T09:48:19.602Z,16.82
2016-11-30T09:49:30.129Z,16.88
2016-11-30T09:50:40.662Z,16.92
2016-11-30T09:51:51.383Z,16.87
2016-11-30T09:53:01.939Z,16.85
2016-11-30T09:54:12.461Z,16.84
2016-11-30T09:55:22.982Z,16.87
2016-11-30T09:56:33.504Z,16.96
2016-11-30T09:57:44.026Z,16.98
2016-11-30T09:58:54.552Z,16.98
2016-11-30T10:00:05.111Z,17.03
2016-11-30T10:01:15.636Z,16.98
2016-11-30T10:02:26.169Z,16.99
2016-11-30T10:03:37.201Z,17.1
2016-11-30T10:04:47.727Z,17.17
2016-11-30T10:05:58.250Z,17.14
2016-11-30T10:07:08.778Z,17.18
2016-11-30T10:08:19.296Z,17.2
2016-11-30T10:09:29.815Z,17.17
2016-11-30T10:10:40.343Z,17.17
2016-11-30T10:11:50.865Z,17.17
2016-11-30T10:13:01.382Z,17.18
2016-11-30T10:14:11.911Z,17.3
2016-11-30T10:16:47.687Z,17.24
2016-11-30T10:17:58.218Z,17.35
2016-11-30T10:19:08.745Z,17.25
2016-11-30T10:20:19.269Z,17.3
2016-11-30T10:21:29.792Z,17.33
2016-11-30T10:22:40.313Z,17.3
2016-11-30T10:23:50.833Z,17.28
2016-11-30T10:25:01.358Z,17.28
2016-11-30T10:26:12.092Z,17.24
2016-11-30T10:27:22.614Z,17.18
2016-11-30T10:28:33.141Z,17.28
2016-11-30T10:29:43.664Z,17.15
2016-11-30T10:30:54.183Z,17.18
2016-11-30T10:32:04.905Z,17.22
2016-11-30T10:33:29.955Z,17.2
2016-11-30T10:34:55.004Z,17.18
2016-11-30T10:36:05.526Z,17.2
2016-11-30T10:37:16.059Z,17.3
2016-11-30T10:38:41.144Z,17.27
2016-11-30T10:39:51.668Z,17.33
2016-11-30T10:41:02.193Z,17.32
2016-11-30T10:42:12.820Z,17.38
2016-11-30T10:43:23.346Z,17.38
2016-11-30T10:44:33.867Z,17.45
2016-11-30T10:47:09.446Z,17.43
2016-11-30T10:48:20.479Z,17.43
2016-11-30T10:49:31.007Z,17.42
2016-11-30T10:50:41.536Z,17.38
2016-11-30T10:51:52.065Z,17.46
2016-11-30T10:53:02.587Z,17.36
2016-11-30T10:54:13.111Z,17.39
2016-11-30T10:55:23.670Z,17.28
2016-11-30T10:56:34.192Z,17.32
2016-11-30T10:57:44.726Z,17.38
2016-11-30T10:58:55.245Z,17.32
2016-11-30T11:00:05.768Z,17.39
2016-11-30T11:01:16.302Z,17.39
2016-11-30T11:02:26.821Z,17.45
2016-11-30T11:03:37.349Z,17.38
2016-11-30T11:04:47.871Z,17.47
2016-11-30T11:05:58.390Z,17.4
2016-11-30T11:07:08.914Z,17.47
2016-11-30T11:08:19.442Z,17.42
2016-11-30T11:09:44.434Z,17.42
2016-11-30T11:10:54.839Z,17.53
2016-11-30T11:12:05.249Z,17.55
2016-11-30T11:13:30.200Z,17.63
2016-11-30T11:14:40.604Z,17.71
2016-11-30T11:15:51.498Z,17.84
2016-11-30T11:17:01.901Z,17.84
2016-11-30T11:18:12.316Z,17.77
2016-11-30T11:19:37.268Z,17.73
2016-11-30T11:20:47.675Z,17.66
2016-11-30T11:21:58.087Z,17.66
2016-11-30T11:23:08.518Z,17.68
2016-11-30T11:24:18.918Z,17.87
2016-11-30T11:25:43.891Z,17.92
2016-11-30T11:26:54.296Z,17.87
2016-11-30T11:28:04.698Z,17.92
2016-11-30T11:29:15.101Z,17.99
2016-11-30T11:30:25.502Z,17.92
2016-11-30T11:31:35.901Z,17.92
2016-11-30T11:32:46.306Z,17.89
2016-11-30T11:33:56.711Z,18.07
2016-11-30T11:35:07.117Z,17.91
2016-11-30T11:36:17.522Z,17.89
2016-11-30T11:37:28.125Z,17.91
2016-11-30T11:38:53.080Z,17.86
2016-11-30T11:40:03.481Z,17.83
2016-11-30T11:41:28.436Z,17.96
2016-11-30T11:42:39.189Z,17.94
2016-11-30T11:43:49.591Z,17.96
2016-11-30T11:44:59.997Z,17.94
2016-11-30T11:46:10.404Z,17.91
2016-11-30T11:47:20.809Z,17.92
2016-11-30T11:49:00.315Z,18.05
2016-11-30T11:50:10.720Z,18.02
2016-11-30T11:51:21.123Z,17.87
2016-11-30T11:52:31.523Z,17.95
2016-11-30T11:53:41.936Z,17.98
2016-11-30T11:56:17.290Z,17.94
2016-11-30T11:57:27.691Z,18.01
2016-11-30T11:58:38.197Z,18.14
2016-11-30T11:59:48.598Z,18.23
2016-11-30T12:00:59.006Z,18.21
2016-11-30T12:02:09.406Z,18.42
2016-11-30T12:03:19.807Z,18.34
2016-11-30T12:04:44.765Z,18.47
2016-11-30T12:05:55.173Z,18.54
2016-11-30T12:07:05.581Z,18.56
2016-11-30T12:08:30.549Z,18.53
2016-11-30T12:09:40.958Z,18.66
2016-11-30T12:10:51.364Z,18.51
2016-11-30T12:12:01.770Z,18.59
2016-11-30T12:13:12.178Z,18.53
2016-11-30T12:14:23.509Z,18.5
2016-11-30T12:17:17.017Z,18.36
2016-11-30T12:18:27.543Z,18.44
2016-11-30T12:19:38.767Z,18.29
2016-11-30T12:21:20.634Z,18.25
2016-11-30T12:23:01.502Z,18.38
2016-11-30T12:24:12.040Z,18.41
2016-11-30T12:25:37.123Z,18.41
2016-11-30T12:26:47.674Z,18.44
2016-11-30T12:28:13.432Z,18.42
2016-11-30T12:29:53.524Z,18.56
2016-11-30T12:31:04.758Z,18.51
2016-11-30T12:32:16.303Z,18.49
2016-11-30T12:33:41.371Z,18.47
2016-11-30T12:35:06.418Z,18.54
2016-11-30T12:36:18.045Z,18.53
2016-11-30T12:37:29.578Z,18.35
2016-11-30T12:38:40.332Z,18.31
2016-11-30T12:39:50.860Z,18.39
2016-11-30T12:41:01.381Z,18.25
2016-11-30T12:42:11.900Z,18.38
2016-11-30T12:43:22.919Z,18.41
2016-11-30T12:44:33.438Z,18.36
2016-11-30T12:45:43.964Z,18.32
2016-11-30T12:46:54.518Z,18.31
2016-11-30T12:48:05.541Z,18.39
2016-11-30T12:49:16.075Z,18.31
2016-11-30T12:50:41.146Z,18.32
2016-11-30T12:52:06.695Z,18.39
2016-11-30T12:53:17.419Z,18.34
2016-11-30T12:54:27.943Z,18.35
2016-11-30T12:55:38.499Z,18.21
2016-11-30T12:56:49.027Z,18.34
2016-11-30T12:57:59.553Z,18.35
2016-11-30T12:59:10.083Z,18.36
2016-11-30T13:00:20.603Z,18.34
2016-11-30T13:01:31.126Z,18.26
2016-11-30T13:02:41.657Z,18.29
2016-11-30T13:03:52.178Z,18.36
2016-11-30T13:05:02.698Z,18.38
2016-11-30T13:06:27.744Z,18.32
2016-11-30T13:07:38.267Z,18.25
2016-11-30T13:08:48.799Z,18.36
2016-11-30T13:09:59.322Z,18.42
2016-11-30T13:11:10.348Z,18.42
2016-11-30T13:12:20.872Z,18.39
2016-11-30T13:13:31.391Z,18.5
2016-11-30T13:14:41.916Z,18.39
2016-11-30T13:15:52.439Z,18.36
2016-11-30T13:17:02.968Z,18.31
2016-11-30T13:18:13.488Z,18.42
2016-11-30T13:21:18.316Z,18.32
2016-11-30T13:22:28.846Z,18.39
2016-11-30T13:23:39.369Z,18.54
2016-11-30T13:25:04.357Z,18.54
2016-11-30T13:26:14.764Z,18.51
2016-11-30T13:27:25.167Z,18.46
2016-11-30T13:28:35.571Z,18.41
2016-11-30T13:30:00.522Z,18.38
2016-11-30T13:31:10.921Z,18.44
2016-11-30T13:32:21.529Z,18.46
2016-11-30T13:33:31.994Z,18.42
2016-11-30T13:36:08.069Z,18.46
2016-11-30T13:37:18.793Z,18.51
2016-11-30T13:38:43.840Z,18.51
2016-11-30T13:40:08.892Z,18.54
2016-11-30T13:41:19.417Z,18.54
2016-11-30T13:42:29.938Z,18.65
2016-11-30T13:43:40.465Z,18.65
2016-11-30T13:44:50.987Z,18.71
2016-11-30T13:46:01.507Z,18.59
2016-11-30T13:47:12.030Z,18.64
2016-11-30T13:48:37.614Z,18.64
2016-11-30T13:49:48.172Z,18.49
2016-11-30T13:50:58.756Z,18.64
2016-11-30T13:52:23.822Z,18.6
2016-11-30T13:53:34.353Z,18.59
2016-11-30T13:54:44.873Z,18.47
2016-11-30T13:55:55.398Z,18.56
2016-11-30T13:57:05.927Z,18.53
2016-11-30T13:58:16.946Z,18.68
2016-11-30T13:59:27.466Z,18.66
2016-11-30T14:00:52.514Z,18.78
2016-11-30T14:02:03.072Z,18.91
2016-11-30T14:03:13.606Z,18.93
2016-11-30T14:04:24.326Z,19.13
2016-11-30T14:05:34.848Z,19.12
2016-11-30T14:06:45.375Z,19.15
2016-11-30T14:07:55.898Z,19.1
2016-11-30T14:09:06.421Z,18.97
2016-11-30T14:10:17.150Z,18.94
2016-11-30T14:11:27.674Z,18.87
2016-11-30T14:12:52.725Z,18.78
2016-11-30T14:14:03.250Z,18.87
2016-11-30T14:16:38.826Z,18.86
2016-11-30T14:17:49.355Z,18.82
2016-11-30T14:18:59.901Z,18.79
2016-11-30T14:20:24.952Z,18.82
2016-11-30T14:21:35.475Z,18.68
2016-11-30T14:22:45.999Z,18.78
2016-11-30T14:23:56.533Z,18.69
2016-11-30T14:25:07.069Z,18.68
2016-11-30T14:26:17.589Z,18.64
2016-11-30T14:27:42.640Z,18.68
2016-11-30T14:28:53.163Z,18.69
2016-11-30T14:30:03.689Z,18.69
2016-11-30T14:31:14.416Z,18.68
2016-11-30T14:32:24.940Z,18.66
2016-11-30T14:33:35.468Z,18.53
2016-11-30T14:35:00.517Z,18.64
2016-11-30T14:36:11.626Z,18.65
2016-11-30T14:37:22.153Z,18.69
2016-11-30T14:38:32.676Z,18.51
2016-11-30T14:39:43.197Z,18.39
2016-11-30T14:40:53.715Z,18.31
2016-11-30T14:42:18.765Z,18.36
2016-11-30T14:43:29.298Z,18.36
2016-11-30T14:44:39.818Z,18.38
2016-11-30T14:45:50.839Z,18.23
2016-11-30T14:47:01.863Z,18.32
2016-11-30T14:48:12.582Z,18.26
2016-11-30T14:49:23.120Z,18.25
2016-11-30T14:50:33.643Z,18.26
2016-11-30T14:51:44.163Z,18.32
2016-11-30T14:54:19.729Z,18.38
2016-11-30T14:55:30.252Z,18.21
2016-11-30T14:56:41.275Z,18.32
2016-11-30T14:57:51.804Z,18.09
2016-11-30T14:59:02.332Z,17.96
2016-11-30T15:00:12.853Z,17.91
2016-11-30T15:01:23.381Z,17.89
2016-11-30T15:02:33.900Z,17.83
2016-11-30T15:03:44.422Z,17.81
2016-11-30T15:04:54.940Z,17.73
2016-11-30T15:06:05.463Z,17.63
2016-11-30T15:07:15.980Z,17.68
2016-11-30T15:08:26.497Z,17.55
2016-11-30T15:09:37.019Z,17.65
2016-11-30T15:10:47.650Z,17.68
2016-11-30T15:11:58.170Z,17.71
2016-11-30T15:13:08.698Z,17.66
2016-11-30T15:14:19.219Z,17.7
2016-11-30T15:15:29.741Z,17.63
2016-11-30T15:16:54.988Z,17.63
2016-11-30T15:18:05.510Z,17.55
2016-11-30T15:19:16.036Z,17.57
2016-11-30T15:20:41.083Z,17.68
2016-11-30T15:21:52.112Z,17.55
2016-11-30T15:23:02.628Z,17.63
2016-11-30T15:24:13.150Z,17.71
2016-11-30T15:25:23.671Z,17.83
2016-11-30T15:26:34.191Z,17.95
2016-11-30T15:27:44.910Z,17.77
2016-11-30T15:28:55.451Z,17.86
2016-11-30T15:30:06.470Z,17.84
2016-11-30T15:31:16.995Z,17.84
2016-11-30T15:33:52.570Z,17.86
2016-11-30T15:35:03.087Z,17.87
2016-11-30T15:36:13.634Z,17.95
2016-11-30T15:37:24.177Z,17.89
2016-11-30T15:38:34.700Z,17.92
2016-11-30T15:39:45.217Z,17.87
2016-11-30T15:40:56.241Z,18.07
2016-11-30T15:42:06.790Z,18.11
2016-11-30T15:43:17.811Z,18.14
2016-11-30T15:44:28.370Z,18.2
2016-11-30T15:45:38.896Z,18.34
2016-11-30T15:46:49.419Z,18.35
2016-11-30T15:47:59.937Z,18.38
2016-11-30T15:49:10.957Z,18.36
2016-11-30T15:50:21.689Z,18.34